createdAt,value
2022-07-26T00:01:18.338Z,1.08
2022-07-26T00:03:45.495Z,1.35
2022-07-26T00:06:12.654Z,0.95
2022-07-26T00:08:39.589Z,0.95
2022-07-26T00:11:07.509Z,0.57
2022-07-26T00:13:35.295Z,0.50
2022-07-26T00:16:02.900Z,0.65
2022-07-26T00:18:29.853Z,1.15
2022-07-26T00:20:56.730Z,0.73
2022-07-26T00:23:24.859Z,0.90
2022-07-26T00:25:51.654Z,0.73
2022-07-26T00:28:18.437Z,0.55
2022-07-26T00:30:46.481Z,0.77
2022-07-26T00:33:13.327Z,0.75
2022-07-26T00:35:40.256Z,0.90
2022-07-26T00:38:07.116Z,0.52
2022-07-26T00:40:34.994Z,0.77
2022-07-26T00:43:01.907Z,0.98
2022-07-26T00:45:28.704Z,0.77
2022-07-26T00:47:55.540Z,1.33
2022-07-26T00:50:22.325Z,0.95
2022-07-26T00:52:50.384Z,1.13
2022-07-26T00:55:18.023Z,1.75
2022-07-26T00:57:45.701Z,0.50
2022-07-26T01:00:19.706Z,2.20
2022-07-26T01:02:47.465Z,1.05
2022-07-26T01:05:14.508Z,1.33
2022-07-26T01:07:41.773Z,0.82
2022-07-26T01:10:12.560Z,1.00
2022-07-26T01:12:41.413Z,0.90
2022-07-26T01:15:10.381Z,1.00
2022-07-26T01:17:38.227Z,0.80
2022-07-26T01:20:08.231Z,1.15
2022-07-26T01:22:35.061Z,1.00
2022-07-26T01:25:01.830Z,0.73
2022-07-26T01:27:33.844Z,0.82
2022-07-26T01:30:01.203Z,0.98
2022-07-26T01:32:28.040Z,0.88
2022-07-26T01:34:54.818Z,0.80
2022-07-26T01:37:21.560Z,0.43
2022-07-26T01:39:48.304Z,0.95
2022-07-26T01:42:15.049Z,1.13
2022-07-26T01:44:41.877Z,1.02
2022-07-26T01:47:08.876Z,1.00
2022-07-26T01:49:35.717Z,1.17
2022-07-26T01:52:02.673Z,0.93
2022-07-26T01:54:29.472Z,0.88
2022-07-26T01:56:56.228Z,0.90
2022-07-26T01:59:23.142Z,1.45
2022-07-26T02:01:50.010Z,1.10
2022-07-26T02:04:35.668Z,1.50
2022-07-26T02:07:05.254Z,0.90
2022-07-26T02:09:38.058Z,0.50
2022-07-26T02:12:06.666Z,0.70
2022-07-26T02:14:33.497Z,0.70
2022-07-26T02:17:00.468Z,1.17
2022-07-26T02:19:30.612Z,1.10
2022-07-26T02:21:57.958Z,0.73
2022-07-26T02:24:28.672Z,0.95
2022-07-26T02:26:56.234Z,1.10
2022-07-26T02:29:23.395Z,0.93
2022-07-26T02:31:50.859Z,1.10
2022-07-26T02:34:18.183Z,1.00
2022-07-26T02:36:45.306Z,0.50
2022-07-26T02:39:12.647Z,0.90
2022-07-26T02:41:39.679Z,1.02
2022-07-26T02:44:07.914Z,0.98
2022-07-26T02:46:35.299Z,0.85
2022-07-26T02:49:02.170Z,0.80
2022-07-26T02:51:29.253Z,1.02
2022-07-26T02:53:56.066Z,0.85
2022-07-26T02:56:23.148Z,0.95
2022-07-26T02:58:49.908Z,0.73
2022-07-26T03:01:16.709Z,1.00
2022-07-26T03:03:48.609Z,1.00
2022-07-26T03:06:17.569Z,0.85
2022-07-26T03:08:44.384Z,1.10
2022-07-26T03:11:12.319Z,0.70
2022-07-26T03:13:39.409Z,0.93
2022-07-26T03:16:08.009Z,0.68
2022-07-26T03:18:34.855Z,0.88
2022-07-26T03:21:01.958Z,1.20
2022-07-26T03:23:28.852Z,0.75
2022-07-26T03:25:55.589Z,1.15
2022-07-26T03:28:22.308Z,1.23
2022-07-26T03:30:49.133Z,0.95
2022-07-26T03:33:15.961Z,1.40
2022-07-26T03:35:42.723Z,0.98
2022-07-26T03:38:11.449Z,0.75
2022-07-26T03:40:38.181Z,0.80
2022-07-26T03:43:04.982Z,0.88
2022-07-26T03:45:31.771Z,0.95
2022-07-26T03:47:58.519Z,1.45
2022-07-26T03:50:25.251Z,0.70
2022-07-26T03:52:52.069Z,1.38
2022-07-26T03:55:37.439Z,0.80
2022-07-26T03:58:04.517Z,0.82
2022-07-26T04:00:31.535Z,1.08
2022-07-26T04:02:58.334Z,1.08
2022-07-26T04:05:26.086Z,0.95
2022-07-26T04:07:53.785Z,1.02
2022-07-26T04:10:21.924Z,1.40
2022-07-26T04:12:49.629Z,0.85
2022-07-26T04:15:18.895Z,0.95
2022-07-26T04:17:45.801Z,1.05
2022-07-26T04:20:12.912Z,0.82
2022-07-26T04:22:40.821Z,0.70
2022-07-26T04:25:09.376Z,1.30
2022-07-26T04:27:37.645Z,0.85
2022-07-26T04:30:08.566Z,1.27
2022-07-26T04:32:37.993Z,0.77
2022-07-26T04:35:05.120Z,1.05
2022-07-26T04:37:37.981Z,0.63
2022-07-26T04:40:05.427Z,0.93
2022-07-26T04:42:32.179Z,1.50
2022-07-26T04:44:59.758Z,1.25
2022-07-26T04:47:28.298Z,0.68
2022-07-26T04:49:55.049Z,0.80
2022-07-26T04:52:21.823Z,0.82
2022-07-26T04:54:48.556Z,0.75
2022-07-26T04:57:15.340Z,1.02
2022-07-26T04:59:42.101Z,1.02
2022-07-26T05:02:09.035Z,0.95
2022-07-26T05:04:35.869Z,1.42
2022-07-26T05:07:03.226Z,0.88
2022-07-26T05:09:30.267Z,0.65
2022-07-26T05:11:57.076Z,0.73
2022-07-26T05:14:23.833Z,0.90
2022-07-26T05:16:50.647Z,0.90
2022-07-26T05:19:17.466Z,1.02
2022-07-26T05:21:44.207Z,0.85
2022-07-26T05:24:11.300Z,0.75
2022-07-26T05:26:38.251Z,0.98
2022-07-26T05:29:05.005Z,1.10
2022-07-26T05:31:31.745Z,0.80
2022-07-26T05:33:58.508Z,0.85
2022-07-26T05:36:25.318Z,0.93
2022-07-26T05:38:52.070Z,0.60
2022-07-26T05:41:18.878Z,1.02
2022-07-26T05:43:45.768Z,0.90
2022-07-26T05:46:12.823Z,0.85
2022-07-26T05:48:40.177Z,0.47
2022-07-26T05:51:07.439Z,0.40
2022-07-26T05:53:34.682Z,0.50
2022-07-26T05:56:01.480Z,1.02
2022-07-26T05:58:28.281Z,1.05
2022-07-26T06:00:55.081Z,0.65
2022-07-26T06:03:25.800Z,0.47
2022-07-26T06:05:57.819Z,0.88
2022-07-26T06:08:26.363Z,1.10
2022-07-26T06:10:54.346Z,0.90
2022-07-26T06:13:21.100Z,0.70
2022-07-26T06:15:47.996Z,1.02
2022-07-26T06:18:14.923Z,0.85
2022-07-26T06:20:43.269Z,0.82
2022-07-26T06:23:10.366Z,1.88
2022-07-26T06:25:37.539Z,0.70
2022-07-26T06:28:09.454Z,1.15
2022-07-26T06:30:37.583Z,0.57
2022-07-26T06:33:05.209Z,0.65
2022-07-26T06:35:34.156Z,1.08
2022-07-26T06:38:01.503Z,0.70
2022-07-26T06:40:28.333Z,1.45
2022-07-26T06:42:55.149Z,0.93
2022-07-26T06:45:22.322Z,0.75
2022-07-26T06:47:49.156Z,1.17
2022-07-26T06:50:15.962Z,1.00
2022-07-26T06:52:47.861Z,0.90
2022-07-26T06:55:14.843Z,1.17
2022-07-26T06:57:50.086Z,1.30
2022-07-26T07:00:18.195Z,1.10
2022-07-26T07:02:45.347Z,1.67
2022-07-26T07:05:12.979Z,2.35
2022-07-26T07:07:42.246Z,1.63
2022-07-26T07:10:09.903Z,1.00
2022-07-26T07:12:36.950Z,1.33
2022-07-26T07:15:04.087Z,1.35
2022-07-26T07:17:30.950Z,0.82
2022-07-26T07:19:57.797Z,1.40
2022-07-26T07:22:24.566Z,0.95
2022-07-26T07:24:51.564Z,1.25
2022-07-26T07:27:18.450Z,1.17
2022-07-26T07:29:45.577Z,1.52
2022-07-26T07:32:18.486Z,1.27
2022-07-26T07:34:48.251Z,1.10
2022-07-26T07:37:16.173Z,1.40
2022-07-26T07:39:43.854Z,1.13
2022-07-26T07:42:15.856Z,1.25
2022-07-26T07:44:43.311Z,1.17
2022-07-26T07:47:10.211Z,1.30
2022-07-26T07:49:37.766Z,1.15
2022-07-26T07:52:05.389Z,1.30
2022-07-26T07:54:32.343Z,1.85
2022-07-26T07:56:59.334Z,2.13
2022-07-26T07:59:26.234Z,1.17
2022-07-26T08:01:53.069Z,1.58
2022-07-26T08:04:21.701Z,1.13
2022-07-26T08:06:51.102Z,1.10
2022-07-26T08:09:19.196Z,1.27
2022-07-26T08:11:50.676Z,1.58
2022-07-26T08:14:18.968Z,1.73
2022-07-26T08:16:45.904Z,1.00
2022-07-26T08:19:13.263Z,1.00
2022-07-26T08:21:42.954Z,1.60
2022-07-26T08:24:10.883Z,1.63
2022-07-26T08:26:38.370Z,1.48
2022-07-26T08:29:05.253Z,2.03
2022-07-26T08:31:32.163Z,1.60
2022-07-26T08:33:58.961Z,2.28
2022-07-26T08:36:31.819Z,2.03
2022-07-26T08:39:00.208Z,2.17
2022-07-26T08:41:27.219Z,2.72
2022-07-26T08:43:54.186Z,2.38
2022-07-26T08:46:27.047Z,3.10
2022-07-26T08:48:55.597Z,2.30
2022-07-26T08:51:24.707Z,1.67
2022-07-26T08:54:02.307Z,2.03
2022-07-26T08:56:31.034Z,2.35
2022-07-26T08:58:57.866Z,1.92
2022-07-26T09:01:24.767Z,2.08
2022-07-26T09:03:51.735Z,2.92
2022-07-26T09:06:28.036Z,2.45
2022-07-26T09:09:12.580Z,2.97
2022-07-26T09:11:39.553Z,1.85
2022-07-26T09:14:06.798Z,2.30
2022-07-26T09:16:37.493Z,2.17
2022-07-26T09:19:22.655Z,2.03
2022-07-26T09:21:50.578Z,1.77
2022-07-26T09:24:35.329Z,2.00
2022-07-26T09:27:04.429Z,1.77
2022-07-26T09:29:41.648Z,1.98
2022-07-26T09:32:18.593Z,1.35
2022-07-26T09:34:58.729Z,2.58
2022-07-26T09:37:37.454Z,1.90
2022-07-26T09:40:13.688Z,2.13
2022-07-26T09:42:57.718Z,2.28
2022-07-26T09:45:25.789Z,2.35
2022-07-26T09:47:52.941Z,2.20
2022-07-26T09:50:23.331Z,2.80
2022-07-26T09:53:08.654Z,1.88
2022-07-26T09:55:45.259Z,2.55
2022-07-26T09:58:14.293Z,2.80
2022-07-26T10:00:42.197Z,2.35
2022-07-26T10:03:09.202Z,2.67
2022-07-26T10:05:37.870Z,2.20
2022-07-26T10:08:06.288Z,2.25
2022-07-26T10:10:42.186Z,1.52
2022-07-26T10:13:10.119Z,2.40
2022-07-26T10:15:40.434Z,1.77
2022-07-26T10:18:09.523Z,2.28
2022-07-26T10:20:49.405Z,2.50
2022-07-26T10:23:34.927Z,1.90
2022-07-26T10:26:02.834Z,1.58
2022-07-26T10:28:31.507Z,2.17
2022-07-26T10:31:26.332Z,2.00
2022-07-26T10:33:54.808Z,1.77
2022-07-26T10:36:36.568Z,1.70
2022-07-26T10:41:44.474Z,1.92
2022-07-26T10:44:14.407Z,1.90
2022-07-26T10:47:00.713Z,1.48
2022-07-26T10:49:31.942Z,2.00
2022-07-26T10:52:13.950Z,1.80
2022-07-26T10:54:59.252Z,1.50
2022-07-26T10:57:40.569Z,1.38
2022-07-26T11:00:15.060Z,1.40
2022-07-26T11:02:44.163Z,1.90
2022-07-26T11:05:16.559Z,1.17
2022-07-26T11:07:49.592Z,2.00
2022-07-26T11:10:16.878Z,1.33
2022-07-26T11:12:43.671Z,1.98
2022-07-26T11:15:18.519Z,1.88
2022-07-26T11:17:45.461Z,1.58
2022-07-26T11:20:29.109Z,2.28
2022-07-26T11:22:56.644Z,1.83
2022-07-26T11:25:23.906Z,2.20
2022-07-26T11:28:07.193Z,2.08
2022-07-26T11:30:35.143Z,1.80
2022-07-26T11:33:01.942Z,1.70
2022-07-26T11:35:29.714Z,1.70
2022-07-26T11:38:07.750Z,1.67
2022-07-26T11:40:45.225Z,1.88
2022-07-26T11:43:12.247Z,1.58
2022-07-26T11:45:39.180Z,1.20
2022-07-26T11:48:06.378Z,2.33
2022-07-26T11:50:33.305Z,2.55
2022-07-26T11:53:00.946Z,2.30
2022-07-26T11:55:29.477Z,1.70
2022-07-26T11:57:57.276Z,2.00
2022-07-26T12:00:24.344Z,1.63
2022-07-26T12:02:55.833Z,2.38
2022-07-26T12:05:23.574Z,3.53
2022-07-26T12:07:59.017Z,10.90
2022-07-26T12:10:26.855Z,7.43
2022-07-26T12:13:13.811Z,7.63
2022-07-26T12:15:48.432Z,3.80
2022-07-26T12:18:23.561Z,2.72
2022-07-26T12:21:08.908Z,2.28
2022-07-26T12:23:44.421Z,1.70
2022-07-26T12:26:28.451Z,1.70
2022-07-26T12:28:56.280Z,1.70
2022-07-26T12:31:31.328Z,1.73
2022-07-26T12:33:58.944Z,1.77
2022-07-26T12:36:28.311Z,1.80
2022-07-26T12:38:57.459Z,1.77
2022-07-26T12:41:35.019Z,2.20
2022-07-26T12:44:01.895Z,2.28
2022-07-26T12:46:33.309Z,1.83
2022-07-26T12:49:01.065Z,1.93
2022-07-26T12:51:28.363Z,2.10
2022-07-26T12:53:55.252Z,1.95
2022-07-26T12:56:22.065Z,1.73
2022-07-26T12:58:48.889Z,1.90
2022-07-26T13:01:15.770Z,1.70
2022-07-26T13:03:42.590Z,2.03
2022-07-26T13:06:09.397Z,1.83
2022-07-26T13:08:36.173Z,1.95
2022-07-26T13:11:02.968Z,1.70
2022-07-26T13:13:30.432Z,1.98
2022-07-26T13:15:57.229Z,1.98
2022-07-26T13:18:23.962Z,1.38
2022-07-26T13:20:51.391Z,1.88
2022-07-26T13:23:21.798Z,1.70
2022-07-26T13:25:50.465Z,1.75
2022-07-26T13:28:17.558Z,1.63
2022-07-26T13:30:45.236Z,1.48
2022-07-26T13:33:12.563Z,1.80
2022-07-26T13:35:41.072Z,2.42
2022-07-26T13:38:09.008Z,1.77
2022-07-26T13:40:36.096Z,2.25
2022-07-26T13:43:04.207Z,1.80
2022-07-26T13:45:30.997Z,2.03
2022-07-26T13:47:59.216Z,2.10
2022-07-26T13:50:27.509Z,1.83
2022-07-26T13:52:57.713Z,1.45
2022-07-26T13:55:25.736Z,1.35
2022-07-26T13:57:56.620Z,1.77
2022-07-26T14:00:27.619Z,1.87
2022-07-26T14:02:55.498Z,1.55
2022-07-26T14:05:22.775Z,1.58
2022-07-26T14:07:50.057Z,1.75
2022-07-26T14:10:17.102Z,1.75
2022-07-26T14:12:43.916Z,1.98
2022-07-26T14:15:15.129Z,1.65
2022-07-26T14:17:47.129Z,1.80
2022-07-26T14:20:14.843Z,1.45
2022-07-26T14:22:41.626Z,2.15
2022-07-26T14:25:08.827Z,1.50
2022-07-26T14:27:35.678Z,1.98
2022-07-26T14:30:03.174Z,2.25
2022-07-26T14:32:29.924Z,1.52
2022-07-26T14:34:56.774Z,2.15
2022-07-26T14:37:44.403Z,2.25
2022-07-26T14:40:10.971Z,2.13
2022-07-26T14:42:37.732Z,1.80
2022-07-26T14:45:04.985Z,2.80
2022-07-26T14:47:31.725Z,2.28
2022-07-26T14:50:02.779Z,3.08
2022-07-26T14:52:32.867Z,2.17
2022-07-26T14:54:59.686Z,2.30
2022-07-26T14:57:26.981Z,1.98
2022-07-26T14:59:53.870Z,1.70
2022-07-26T15:02:20.828Z,2.05
2022-07-26T15:04:47.728Z,1.83
2022-07-26T15:07:14.479Z,1.83
2022-07-26T15:09:41.322Z,1.85
2022-07-26T15:12:08.291Z,2.05
2022-07-26T15:14:36.077Z,1.80
2022-07-26T15:17:03.126Z,1.80
2022-07-26T15:19:30.001Z,1.63
2022-07-26T15:21:57.254Z,3.25
2022-07-26T15:24:24.520Z,2.42
2022-07-26T15:26:51.379Z,2.28
2022-07-26T15:29:18.138Z,1.50
2022-07-26T15:31:46.473Z,2.03
2022-07-26T15:34:13.701Z,2.55
2022-07-26T15:36:41.119Z,2.35
2022-07-26T15:39:23.744Z,2.20
2022-07-26T15:41:50.757Z,1.55
2022-07-26T15:44:20.142Z,1.98
2022-07-26T15:46:49.708Z,1.30
2022-07-26T15:49:17.638Z,2.08
2022-07-26T15:51:45.072Z,1.67
2022-07-26T15:54:15.870Z,2.03
2022-07-26T15:56:43.396Z,1.52
2022-07-26T15:59:10.176Z,1.58
2022-07-26T16:01:37.241Z,1.83
2022-07-26T16:04:05.692Z,2.00
2022-07-26T16:06:33.561Z,1.50
2022-07-26T16:09:18.941Z,1.67
2022-07-26T16:11:50.078Z,1.67
2022-07-26T16:14:17.602Z,1.48
2022-07-26T16:16:45.522Z,1.88
2022-07-26T16:19:12.906Z,1.70
2022-07-26T16:21:40.684Z,1.48
2022-07-26T16:24:08.854Z,2.25
2022-07-26T16:26:35.958Z,1.63
2022-07-26T16:29:03.589Z,1.25
2022-07-26T16:31:31.267Z,1.30
2022-07-26T16:33:58.698Z,1.55
2022-07-26T16:36:25.659Z,1.42
2022-07-26T16:38:52.415Z,1.70
2022-07-26T16:41:19.193Z,1.80
2022-07-26T16:43:45.955Z,1.63
2022-07-26T16:46:12.790Z,1.55
2022-07-26T16:48:39.674Z,1.80
2022-07-26T16:51:06.552Z,2.13
2022-07-26T16:53:33.350Z,1.90
2022-07-26T16:56:00.128Z,2.10
2022-07-26T16:58:26.921Z,1.55
2022-07-26T17:00:53.862Z,1.27
2022-07-26T17:03:20.702Z,1.27
2022-07-26T17:05:48.189Z,1.70
2022-07-26T17:08:15.429Z,1.50
2022-07-26T17:10:42.858Z,1.33
2022-07-26T17:13:09.671Z,1.48
2022-07-26T17:15:37.347Z,1.48
2022-07-26T17:18:04.253Z,1.27
2022-07-26T17:20:31.158Z,1.08
2022-07-26T17:22:57.949Z,1.30
2022-07-26T17:25:24.743Z,1.40
2022-07-26T17:27:51.471Z,1.08
2022-07-26T17:30:18.333Z,1.35
2022-07-26T17:32:45.198Z,0.90
2022-07-26T17:35:12.065Z,1.23
2022-07-26T17:37:38.895Z,1.17
2022-07-26T17:40:08.244Z,1.95
2022-07-26T17:42:36.507Z,1.85
2022-07-26T17:45:04.624Z,1.83
2022-07-26T17:47:31.769Z,1.77
2022-07-26T17:52:47.320Z,1.48
2022-07-26T17:55:14.154Z,1.63
2022-07-26T17:57:40.997Z,2.35
2022-07-26T18:00:08.651Z,1.10
2022-07-26T18:02:35.434Z,2.00
2022-07-26T18:05:03.295Z,2.03
2022-07-26T18:07:30.136Z,1.50
2022-07-26T18:09:57.503Z,1.65
2022-07-26T18:12:24.788Z,1.55
2022-07-26T18:14:52.299Z,1.77
2022-07-26T18:17:19.635Z,1.75
2022-07-26T18:19:46.473Z,1.92
2022-07-26T18:22:13.365Z,1.88
2022-07-26T18:24:40.525Z,1.83
2022-07-26T18:27:07.414Z,2.20
2022-07-26T18:29:34.220Z,1.80
2022-07-26T18:32:02.153Z,1.80
2022-07-26T18:34:29.006Z,1.50
2022-07-26T18:36:57.164Z,1.52
2022-07-26T18:39:24.650Z,1.83
2022-07-26T18:41:59.885Z,1.58
2022-07-26T18:44:26.728Z,1.02
2022-07-26T18:46:56.115Z,1.52
2022-07-26T18:49:23.902Z,1.23
2022-07-26T18:52:00.712Z,1.30
2022-07-26T18:54:33.139Z,1.60
2022-07-26T18:57:00.109Z,1.17
2022-07-26T18:59:27.082Z,2.03
2022-07-26T19:01:53.926Z,1.23
2022-07-26T19:04:21.780Z,2.10
2022-07-26T19:06:49.788Z,1.15
2022-07-26T19:09:16.762Z,2.08
2022-07-26T19:11:45.803Z,1.50
2022-07-26T19:14:13.075Z,1.73
2022-07-26T19:16:40.011Z,1.50
2022-07-26T19:19:06.830Z,1.75
2022-07-26T19:21:33.793Z,1.70
2022-07-26T19:24:00.724Z,2.08
2022-07-26T19:26:27.730Z,1.42
2022-07-26T19:28:54.665Z,1.35
2022-07-26T19:31:22.231Z,1.33
2022-07-26T19:33:50.188Z,1.80
2022-07-26T19:36:22.567Z,2.30
2022-07-26T19:38:52.627Z,1.67
2022-07-26T19:41:20.079Z,1.30
2022-07-26T19:43:46.942Z,1.50
2022-07-26T19:46:13.887Z,1.88
2022-07-26T19:48:40.897Z,1.55
2022-07-26T19:51:07.822Z,1.42
2022-07-26T19:53:34.760Z,1.05
2022-07-26T19:56:01.692Z,1.48
2022-07-26T19:58:30.745Z,1.23
2022-07-26T20:00:57.620Z,1.25
2022-07-26T20:03:24.511Z,1.17
2022-07-26T20:05:53.897Z,1.48
2022-07-26T20:08:21.597Z,1.52
2022-07-26T20:10:48.932Z,1.48
2022-07-26T20:13:16.484Z,1.60
2022-07-26T20:15:43.654Z,1.50
2022-07-26T20:18:10.677Z,1.92
2022-07-26T20:20:37.627Z,1.60
2022-07-26T20:23:06.117Z,1.33
2022-07-26T20:25:33.462Z,1.63
2022-07-26T20:28:00.530Z,1.25
2022-07-26T20:30:27.853Z,1.30
2022-07-26T20:32:54.769Z,2.58
2022-07-26T20:35:21.667Z,2.20
2022-07-26T20:37:48.458Z,2.17
2022-07-26T20:40:17.733Z,2.00
2022-07-26T20:42:44.925Z,1.60
2022-07-26T20:45:12.982Z,1.35
2022-07-26T20:47:40.536Z,1.58
2022-07-26T20:50:13.019Z,1.20
2022-07-26T20:52:40.297Z,1.65
2022-07-26T20:55:07.897Z,1.30
2022-07-26T20:57:34.942Z,1.52
2022-07-26T21:00:01.916Z,1.00
2022-07-26T21:02:28.849Z,1.20
2022-07-26T21:04:55.738Z,1.27
2022-07-26T21:07:24.153Z,1.08
2022-07-26T21:10:11.062Z,1.05
2022-07-26T21:12:37.912Z,1.55
2022-07-26T21:15:05.304Z,1.40
2022-07-26T21:17:33.525Z,0.95
2022-07-26T21:20:02.933Z,1.42
2022-07-26T21:22:30.103Z,1.25
2022-07-26T21:24:56.907Z,1.33
2022-07-26T21:27:23.746Z,0.77
2022-07-26T21:29:50.641Z,1.30
2022-07-26T21:32:17.422Z,1.25
2022-07-26T21:34:44.368Z,1.05
2022-07-26T21:37:11.190Z,1.10
2022-07-26T21:39:37.988Z,1.58
2022-07-26T21:42:04.790Z,1.10
2022-07-26T21:44:31.645Z,1.05
2022-07-26T21:46:58.455Z,0.80
2022-07-26T21:49:25.542Z,1.40
2022-07-26T21:51:52.522Z,1.40
2022-07-26T21:54:19.357Z,1.23
2022-07-26T21:56:46.155Z,1.17
2022-07-26T21:59:14.103Z,1.40
2022-07-26T22:01:41.405Z,1.20
2022-07-26T22:04:08.432Z,1.38
2022-07-26T22:06:35.223Z,1.20
2022-07-26T22:09:02.805Z,1.33
2022-07-26T22:11:29.837Z,1.40
2022-07-26T22:13:58.082Z,1.33
2022-07-26T22:16:24.950Z,1.40
2022-07-26T22:18:51.822Z,1.42
2022-07-26T22:21:18.814Z,1.45
2022-07-26T22:23:45.611Z,2.25
2022-07-26T22:26:16.351Z,1.30
2022-07-26T22:28:43.178Z,1.55
2022-07-26T22:31:10.072Z,2.17
2022-07-26T22:33:37.056Z,1.63
2022-07-26T22:36:04.191Z,1.55
2022-07-26T22:38:31.476Z,1.85
2022-07-26T22:40:59.834Z,1.85
2022-07-26T22:43:26.776Z,1.13
2022-07-26T22:45:53.719Z,1.45
2022-07-26T22:48:20.698Z,1.75
2022-07-26T22:50:47.528Z,1.30
2022-07-26T22:53:14.440Z,1.30
2022-07-26T22:55:41.266Z,1.00
2022-07-26T22:58:08.034Z,1.80
2022-07-26T23:00:35.219Z,1.45
2022-07-26T23:03:02.060Z,2.05
2022-07-26T23:05:45.454Z,1.55
2022-07-26T23:08:43.846Z,1.40
2022-07-26T23:11:00.495Z,1.65
2022-07-26T23:13:27.289Z,1.50
2022-07-26T23:15:59.656Z,1.30
2022-07-26T23:18:27.731Z,1.30
2022-07-26T23:20:54.514Z,1.27
2022-07-26T23:23:21.342Z,1.23
2022-07-26T23:25:48.134Z,1.00
2022-07-26T23:28:35.173Z,1.25
2022-07-26T23:31:03.740Z,1.20
2022-07-26T23:33:51.509Z,1.38
2022-07-26T23:36:17.494Z,1.90
2022-07-26T23:38:44.295Z,1.35
2022-07-26T23:41:11.095Z,1.38
2022-07-26T23:43:37.921Z,1.70
2022-07-26T23:46:04.706Z,1.10
2022-07-26T23:48:31.585Z,1.23
2022-07-26T23:50:58.515Z,1.13
2022-07-26T23:53:26.652Z,1.10
2022-07-26T23:55:54.342Z,0.93
2022-07-26T23:58:21.766Z,1.52
